Terminal Aerodrome Forecast
Issued by NWS Boston, MA

Home | Current Version | Previous Version | Text Only | Print | Product List | Glossary On
Versions: 1 2 3 4 5 6 7 8 9 10 11 12 13 14 15 16 17 18 19 20 21 22 23 24 25 26 27 28 29 30 31 32 33 34
000
FTUS41 KBOX 292322
TAFORH
TAF
KORH 292322Z 3000/3024 15006KT P6SM SCT060
     FM300300 19006KT P6SM FEW200
     FM300800 23007KT P6SM SCT001
     FM301100 23008KT P6SM SCT250
     FM301500 22010G24KT P6SM SCT045=

USA.gov is the U.S. government's official web portal to all federal, state and local government web resources and services.